Annandale, PA

2:33 AM EST on February 09, 2016 (GMT -0500)
Weathervane Hill | | Change Station
CLOSE
Current Station
Personal Weather Station
Location: Slippery Rock, PA
Elevation: 1230 ft
Nearby Weather Stations

Elev 1230 ft 41.05 °N, 80.03 °W | Updated 8 seconds ago

Snow
Snow
32.0 °F
Feels Like 32 °F
N
0.0
Wind Variable Wind from SSE
Gusts 0.0 mph

Today
High -- | Low -- °F
--% Chance of Precip.
Yesterday
High -- | Low -- °F
Precip. -- in
Pressure 29.54 in
Visibility 7.0 miles
Clouds Overcast 600 ft
Windchill 32 °F
Dew Point 30 °F
Humidity 94%
Rainfall 0.00 in
Snow Depth Not available.
7:22 AM 5:45 PM
New Moon, 1% visible
METAR KFKL 090715Z 22005KT 7SM OVC006 M01/M03 A2954 RMK AO1
Pressure 29.54 in
Visibility 7.0 miles
Clouds Overcast 600 ft
Windchill 32 °F
Dew Point 30 °F
Humidity 94%
Rainfall 0.00 in
Snow Depth Not available.
7:22 AM 5:45 PM
New Moon, 1% visible
METAR KFKL 090715Z 22005KT 7SM OVC006 M01/M03 A2954 RMK AO1

10-Day Weather Forecast

Almanac

Astronomy

Feb. 09, 2016 Rise Set
Actual Time
Civil Twilight
Nautical Twilight
Astronomical Twilight
Moon
Length of Visible Light
Length of Day
Tomorrow will be .
, % of the Moon is Illuminated

Today's Extremes

State Highs State Lows

Community

WunderPhotos

Upload Photos

1,891,571 photos uploaded!

WunderBlog® & News

Nearby

Air Quality

  Air Quality AQ Index Pollutant
Not available.

Snow Depth

Station Depth Elevation

Earthquake Activity

City Distance Mag. Time & Date
Minimum magnitude displayed is 2.5.

Coastal Water Temperatures

Place Temperature

Stations

Nearby Weather Stations

Station Location Temp. Windchill Dew Point Humidity Wind Precip. Elev Updated Type
                   

Watches & Warnings

There are currently no watches in effect.